sensor_id;sensor_type;location;lat;lon;timestamp;P1;durP1;ratioP1;P2;durP2;ratioP2
17177;SDS011;8704;52.006;4.374;2022-12-16T00:01:33;152.18;;;144.23;;
17177;SDS011;8704;52.006;4.374;2022-12-16T00:04:03;152.48;;;144.57;;
17177;SDS011;8704;52.006;4.374;2022-12-16T00:06:32;144.18;;;137.07;;
17177;SDS011;8704;52.006;4.374;2022-12-16T00:09:00;144.73;;;137.00;;
17177;SDS011;8704;52.006;4.374;2022-12-16T00:11:28;147.75;;;139.82;;
17177;SDS011;8704;52.006;4.374;2022-12-16T00:13:57;148.02;;;140.45;;
17177;SDS011;8704;52.006;4.374;2022-12-16T00:16:25;146.02;;;138.63;;
17177;SDS011;8704;52.006;4.374;2022-12-16T00:18:53;149.95;;;142.32;;
17177;SDS011;8704;52.006;4.374;2022-12-16T00:21:23;149.95;;;142.55;;
17177;SDS011;8704;52.006;4.374;2022-12-16T00:23:54;150.45;;;142.98;;
17177;SDS011;8704;52.006;4.374;2022-12-16T00:26:23;147.20;;;139.50;;
17177;SDS011;8704;52.006;4.374;2022-12-16T00:28:51;143.95;;;137.00;;
17177;SDS011;8704;52.006;4.374;2022-12-16T00:31:20;141.65;;;134.52;;
17177;SDS011;8704;52.006;4.374;2022-12-16T00:33:48;139.10;;;132.13;;
17177;SDS011;8704;52.006;4.374;2022-12-16T00:36:18;137.65;;;130.70;;
17177;SDS011;8704;52.006;4.374;2022-12-16T00:38:47;135.55;;;129.13;;
17177;SDS011;8704;52.006;4.374;2022-12-16T00:41:17;130.73;;;124.15;;
17177;SDS011;8704;52.006;4.374;2022-12-16T00:43:45;130.57;;;123.28;;
17177;SDS011;8704;52.006;4.374;2022-12-16T00:46:13;126.93;;;120.50;;
17177;SDS011;8704;52.006;4.374;2022-12-16T00:48:41;122.22;;;116.65;;
17177;SDS011;8704;52.006;4.374;2022-12-16T00:51:09;123.47;;;117.35;;
17177;SDS011;8704;52.006;4.374;2022-12-16T00:53:37;121.63;;;115.47;;
17177;SDS011;8704;52.006;4.374;2022-12-16T00:56:07;122.05;;;116.32;;
17177;SDS011;8704;52.006;4.374;2022-12-16T00:58:36;122.13;;;116.13;;
17177;SDS011;8704;52.006;4.374;2022-12-16T01:01:05;118.18;;;112.43;;
17177;SDS011;8704;52.006;4.374;2022-12-16T01:03:33;119.63;;;113.82;;
17177;SDS011;8704;52.006;4.374;2022-12-16T01:06:05;113.35;;;108.00;;
17177;SDS011;8704;52.006;4.374;2022-12-16T01:11:02;108.88;;;103.50;;
17177;SDS011;8704;52.006;4.374;2022-12-16T01:13:31;106.93;;;101.93;;
17177;SDS011;8704;52.006;4.374;2022-12-16T01:16:01;109.95;;;104.10;;
17177;SDS011;8704;52.006;4.374;2022-12-16T01:18:29;101.68;;;96.10;;
17177;SDS011;8704;52.006;4.374;2022-12-16T01:21:00;99.38;;;94.50;;
17177;SDS011;8704;52.006;4.374;2022-12-16T01:23:29;92.80;;;88.28;;
17177;SDS011;8704;52.006;4.374;2022-12-16T01:25:58;90.03;;;85.50;;
17177;SDS011;8704;52.006;4.374;2022-12-16T01:28:27;88.03;;;83.65;;
17177;SDS011;8704;52.006;4.374;2022-12-16T01:30:57;81.28;;;77.05;;
17177;SDS011;8704;52.006;4.374;2022-12-16T01:33:27;76.38;;;72.32;;
17177;SDS011;8704;52.006;4.374;2022-12-16T01:35:57;72.07;;;68.53;;
17177;SDS011;8704;52.006;4.374;2022-12-16T01:38:26;70.15;;;66.45;;
17177;SDS011;8704;52.006;4.374;2022-12-16T01:40:54;69.20;;;65.28;;
17177;SDS011;8704;52.006;4.374;2022-12-16T01:43:23;66.65;;;63.15;;
17177;SDS011;8704;52.006;4.374;2022-12-16T01:45:53;62.15;;;58.55;;
17177;SDS011;8704;52.006;4.374;2022-12-16T01:48:30;57.97;;;54.45;;
17177;SDS011;8704;52.006;4.374;2022-12-16T01:51:06;53.22;;;49.78;;
17177;SDS011;8704;52.006;4.374;2022-12-16T01:53:37;49.92;;;47.17;;
17177;SDS011;8704;52.006;4.374;2022-12-16T01:56:09;49.17;;;45.90;;
17177;SDS011;8704;52.006;4.374;2022-12-16T01:58:41;48.10;;;45.30;;
17177;SDS011;8704;52.006;4.374;2022-12-16T02:01:13;45.55;;;42.55;;
17177;SDS011;8704;52.006;4.374;2022-12-16T02:03:43;43.90;;;40.92;;
17177;SDS011;8704;52.006;4.374;2022-12-16T02:06:11;41.88;;;39.50;;
17177;SDS011;8704;52.006;4.374;2022-12-16T02:08:39;42.35;;;38.90;;
17177;SDS011;8704;52.006;4.374;2022-12-16T02:11:10;38.75;;;36.35;;
17177;SDS011;8704;52.006;4.374;2022-12-16T02:16:44;35.80;;;33.72;;
17177;SDS011;8704;52.006;4.374;2022-12-16T02:22:26;32.38;;;30.55;;
17177;SDS011;8704;52.006;4.374;2022-12-16T02:25:13;31.25;;;29.30;;
17177;SDS011;8704;52.006;4.374;2022-12-16T02:28:04;30.48;;;28.13;;
17177;SDS011;8704;52.006;4.374;2022-12-16T02:36:16;26.35;;;24.27;;
17177;SDS011;8704;52.006;4.374;2022-12-16T02:38:55;26.67;;;24.77;;
17177;SDS011;8704;52.006;4.374;2022-12-16T02:41:30;26.38;;;24.52;;
17177;SDS011;8704;52.006;4.374;2022-12-16T02:44:09;26.90;;;25.07;;
17177;SDS011;8704;52.006;4.374;2022-12-16T02:46:40;23.77;;;21.80;;
17177;SDS011;8704;52.006;4.374;2022-12-16T02:52:09;22.23;;;20.40;;
17177;SDS011;8704;52.006;4.374;2022-12-16T02:54:38;22.52;;;21.02;;
17177;SDS011;8704;52.006;4.374;2022-12-16T02:57:09;21.58;;;19.85;;
17177;SDS011;8704;52.006;4.374;2022-12-16T02:59:47;21.38;;;19.70;;
17177;SDS011;8704;52.006;4.374;2022-12-16T03:02:27;20.13;;;18.52;;
17177;SDS011;8704;52.006;4.374;2022-12-16T03:05:01;20.90;;;18.38;;
17177;SDS011;8704;52.006;4.374;2022-12-16T03:07:32;20.33;;;19.03;;
17177;SDS011;8704;52.006;4.374;2022-12-16T03:10:01;19.42;;;18.10;;
17177;SDS011;8704;52.006;4.374;2022-12-16T03:12:33;19.33;;;17.85;;
17177;SDS011;8704;52.006;4.374;2022-12-16T03:15:04;19.95;;;18.25;;
17177;SDS011;8704;52.006;4.374;2022-12-16T03:17:34;18.33;;;16.83;;
17177;SDS011;8704;52.006;4.374;2022-12-16T03:20:06;18.67;;;17.30;;
17177;SDS011;8704;52.006;4.374;2022-12-16T03:22:39;19.13;;;17.27;;
17177;SDS011;8704;52.006;4.374;2022-12-16T03:27:39;18.45;;;16.70;;
17177;SDS011;8704;52.006;4.374;2022-12-16T03:30:12;17.48;;;16.17;;
17177;SDS011;8704;52.006;4.374;2022-12-16T03:32:45;16.38;;;15.30;;
17177;SDS011;8704;52.006;4.374;2022-12-16T03:35:18;17.20;;;15.57;;
17177;SDS011;8704;52.006;4.374;2022-12-16T03:37:50;17.38;;;15.75;;
17177;SDS011;8704;52.006;4.374;2022-12-16T03:40:22;16.60;;;15.23;;
17177;SDS011;8704;52.006;4.374;2022-12-16T03:42:51;15.40;;;14.30;;
17177;SDS011;8704;52.006;4.374;2022-12-16T03:45:22;14.40;;;13.20;;
17177;SDS011;8704;52.006;4.374;2022-12-16T03:47:57;15.00;;;13.75;;
17177;SDS011;8704;52.006;4.374;2022-12-16T03:50:27;15.50;;;13.88;;
17177;SDS011;8704;52.006;4.374;2022-12-16T03:52:58;15.60;;;14.15;;
17177;SDS011;8704;52.006;4.374;2022-12-16T03:55:26;15.73;;;14.38;;
17177;SDS011;8704;52.006;4.374;2022-12-16T03:57:55;15.63;;;14.23;;
17177;SDS011;8704;52.006;4.374;2022-12-16T04:00:23;14.68;;;13.60;;
17177;SDS011;8704;52.006;4.374;2022-12-16T04:02:51;15.50;;;14.20;;
17177;SDS011;8704;52.006;4.374;2022-12-16T04:05:21;14.77;;;13.45;;
17177;SDS011;8704;52.006;4.374;2022-12-16T04:07:49;15.55;;;13.90;;
17177;SDS011;8704;52.006;4.374;2022-12-16T04:10:20;15.15;;;13.80;;
17177;SDS011;8704;52.006;4.374;2022-12-16T04:13:08;14.65;;;13.52;;
17177;SDS011;8704;52.006;4.374;2022-12-16T04:15:55;16.00;;;14.48;;
17177;SDS011;8704;52.006;4.374;2022-12-16T04:18:40;15.43;;;14.23;;
17177;SDS011;8704;52.006;4.374;2022-12-16T04:21:27;16.25;;;14.02;;
17177;SDS011;8704;52.006;4.374;2022-12-16T04:24:14;15.50;;;14.10;;
17177;SDS011;8704;52.006;4.374;2022-12-16T04:26:49;15.95;;;14.45;;
17177;SDS011;8704;52.006;4.374;2022-12-16T04:29:41;15.35;;;14.02;;
17177;SDS011;8704;52.006;4.374;2022-12-16T04:32:22;15.95;;;14.68;;
17177;SDS011;8704;52.006;4.374;2022-12-16T04:34:50;16.83;;;15.68;;
17177;SDS011;8704;52.006;4.374;2022-12-16T04:37:19;16.92;;;15.30;;
17177;SDS011;8704;52.006;4.374;2022-12-16T04:40:05;15.80;;;14.70;;
17177;SDS011;8704;52.006;4.374;2022-12-16T04:42:51;16.67;;;15.43;;
17177;SDS011;8704;52.006;4.374;2022-12-16T04:45:37;16.25;;;14.85;;
17177;SDS011;8704;52.006;4.374;2022-12-16T04:48:23;17.23;;;15.18;;
17177;SDS011;8704;52.006;4.374;2022-12-16T04:51:08;16.80;;;15.48;;
17177;SDS011;8704;52.006;4.374;2022-12-16T04:53:55;17.08;;;15.50;;
17177;SDS011;8704;52.006;4.374;2022-12-16T04:56:40;17.83;;;16.13;;
17177;SDS011;8704;52.006;4.374;2022-12-16T04:59:26;18.20;;;16.73;;
17177;SDS011;8704;52.006;4.374;2022-12-16T05:02:11;18.90;;;17.40;;
17177;SDS011;8704;52.006;4.374;2022-12-16T05:05:11;19.52;;;18.13;;
17177;SDS011;8704;52.006;4.374;2022-12-16T05:07:56;17.85;;;16.70;;
17177;SDS011;8704;52.006;4.374;2022-12-16T05:10:43;18.58;;;17.35;;
17177;SDS011;8704;52.006;4.374;2022-12-16T05:13:28;18.67;;;17.27;;
17177;SDS011;8704;52.006;4.374;2022-12-16T05:16:14;18.42;;;16.90;;
17177;SDS011;8704;52.006;4.374;2022-12-16T05:18:59;17.75;;;16.63;;
17177;SDS011;8704;52.006;4.374;2022-12-16T05:21:44;18.38;;;17.23;;
17177;SDS011;8704;52.006;4.374;2022-12-16T05:24:30;18.17;;;16.88;;
17177;SDS011;8704;52.006;4.374;2022-12-16T05:27:19;18.13;;;16.88;;
17177;SDS011;8704;52.006;4.374;2022-12-16T05:30:05;20.50;;;18.70;;
17177;SDS011;8704;52.006;4.374;2022-12-16T05:32:58;20.48;;;19.17;;
17177;SDS011;8704;52.006;4.374;2022-12-16T05:35:43;21.58;;;19.52;;
17177;SDS011;8704;52.006;4.374;2022-12-16T05:38:30;23.52;;;21.67;;
17177;SDS011;8704;52.006;4.374;2022-12-16T05:41:15;23.85;;;21.48;;
17177;SDS011;8704;52.006;4.374;2022-12-16T05:44:02;23.85;;;22.05;;
17177;SDS011;8704;52.006;4.374;2022-12-16T05:46:48;25.10;;;23.10;;
17177;SDS011;8704;52.006;4.374;2022-12-16T05:49:33;20.20;;;18.42;;
17177;SDS011;8704;52.006;4.374;2022-12-16T05:52:19;21.40;;;19.80;;
17177;SDS011;8704;52.006;4.374;2022-12-16T05:55:04;22.35;;;20.55;;
17177;SDS011;8704;52.006;4.374;2022-12-16T05:57:58;23.13;;;21.23;;
17177;SDS011;8704;52.006;4.374;2022-12-16T06:00:45;23.35;;;21.55;;
17177;SDS011;8704;52.006;4.374;2022-12-16T06:03:31;24.08;;;22.30;;
17177;SDS011;8704;52.006;4.374;2022-12-16T06:06:28;23.58;;;21.77;;
17177;SDS011;8704;52.006;4.374;2022-12-16T06:09:13;23.42;;;21.73;;
17177;SDS011;8704;52.006;4.374;2022-12-16T06:11:55;25.00;;;23.02;;
17177;SDS011;8704;52.006;4.374;2022-12-16T06:14:41;24.48;;;22.02;;
17177;SDS011;8704;52.006;4.374;2022-12-16T06:17:27;23.40;;;21.67;;
17177;SDS011;8704;52.006;4.374;2022-12-16T06:20:13;24.65;;;22.63;;
17177;SDS011;8704;52.006;4.374;2022-12-16T06:22:58;23.05;;;21.40;;
17177;SDS011;8704;52.006;4.374;2022-12-16T06:25:50;23.57;;;21.80;;
17177;SDS011;8704;52.006;4.374;2022-12-16T06:28:36;23.05;;;21.27;;
17177;SDS011;8704;52.006;4.374;2022-12-16T06:31:21;22.83;;;21.33;;
17177;SDS011;8704;52.006;4.374;2022-12-16T06:34:08;22.73;;;21.13;;
17177;SDS011;8704;52.006;4.374;2022-12-16T06:36:54;23.23;;;21.27;;
17177;SDS011;8704;52.006;4.374;2022-12-16T06:39:39;24.08;;;22.17;;
17177;SDS011;8704;52.006;4.374;2022-12-16T06:42:24;24.83;;;22.70;;
17177;SDS011;8704;52.006;4.374;2022-12-16T06:45:10;24.13;;;22.13;;
17177;SDS011;8704;52.006;4.374;2022-12-16T06:48:00;25.23;;;22.95;;
17177;SDS011;8704;52.006;4.374;2022-12-16T06:50:47;23.23;;;21.40;;
17177;SDS011;8704;52.006;4.374;2022-12-16T06:53:32;23.92;;;21.90;;
17177;SDS011;8704;52.006;4.374;2022-12-16T06:56:17;23.38;;;21.00;;
17177;SDS011;8704;52.006;4.374;2022-12-16T06:59:03;22.63;;;20.70;;
17177;SDS011;8704;52.006;4.374;2022-12-16T07:01:49;22.40;;;20.55;;
17177;SDS011;8704;52.006;4.374;2022-12-16T07:04:34;23.17;;;21.13;;
17177;SDS011;8704;52.006;4.374;2022-12-16T07:07:21;22.35;;;20.45;;
17177;SDS011;8704;52.006;4.374;2022-12-16T07:10:07;23.20;;;21.50;;
17177;SDS011;8704;52.006;4.374;2022-12-16T07:12:55;24.63;;;22.40;;
17177;SDS011;8704;52.006;4.374;2022-12-16T07:15:41;26.50;;;24.60;;
17177;SDS011;8704;52.006;4.374;2022-12-16T07:18:27;28.38;;;26.63;;
17177;SDS011;8704;52.006;4.374;2022-12-16T07:21:12;28.90;;;26.73;;
17177;SDS011;8704;52.006;4.374;2022-12-16T07:23:59;29.55;;;27.50;;
17177;SDS011;8704;52.006;4.374;2022-12-16T07:26:45;30.27;;;28.35;;
17177;SDS011;8704;52.006;4.374;2022-12-16T07:29:30;31.77;;;29.35;;
17177;SDS011;8704;52.006;4.374;2022-12-16T07:32:16;30.88;;;28.63;;
17177;SDS011;8704;52.006;4.374;2022-12-16T07:35:01;31.05;;;28.75;;
17177;SDS011;8704;52.006;4.374;2022-12-16T07:37:47;33.72;;;31.23;;
17177;SDS011;8704;52.006;4.374;2022-12-16T07:40:34;34.50;;;31.98;;
17177;SDS011;8704;52.006;4.374;2022-12-16T07:43:20;34.47;;;31.70;;
17177;SDS011;8704;52.006;4.374;2022-12-16T07:46:20;37.90;;;34.40;;
17177;SDS011;8704;52.006;4.374;2022-12-16T07:49:05;36.42;;;33.45;;
17177;SDS011;8704;52.006;4.374;2022-12-16T07:51:51;35.35;;;32.72;;
17177;SDS011;8704;52.006;4.374;2022-12-16T07:54:36;35.13;;;32.28;;
17177;SDS011;8704;52.006;4.374;2022-12-16T07:57:23;36.70;;;34.03;;
17177;SDS011;8704;52.006;4.374;2022-12-16T08:00:09;36.10;;;33.50;;
17177;SDS011;8704;52.006;4.374;2022-12-16T08:02:55;35.80;;;33.25;;
17177;SDS011;8704;52.006;4.374;2022-12-16T08:05:40;36.67;;;33.97;;
17177;SDS011;8704;52.006;4.374;2022-12-16T08:08:26;37.72;;;34.88;;
17177;SDS011;8704;52.006;4.374;2022-12-16T08:11:11;36.88;;;34.55;;
17177;SDS011;8704;52.006;4.374;2022-12-16T08:13:58;37.65;;;35.15;;
17177;SDS011;8704;52.006;4.374;2022-12-16T08:16:44;36.95;;;34.38;;
17177;SDS011;8704;52.006;4.374;2022-12-16T08:19:44;38.75;;;35.63;;
17177;SDS011;8704;52.006;4.374;2022-12-16T08:22:29;36.58;;;33.97;;
17177;SDS011;8704;52.006;4.374;2022-12-16T08:25:15;38.42;;;35.38;;
17177;SDS011;8704;52.006;4.374;2022-12-16T08:28:00;36.53;;;34.00;;
17177;SDS011;8704;52.006;4.374;2022-12-16T08:30:49;36.63;;;33.78;;
17177;SDS011;8704;52.006;4.374;2022-12-16T08:33:35;36.97;;;34.03;;
17177;SDS011;8704;52.006;4.374;2022-12-16T08:36:21;37.63;;;34.75;;
17177;SDS011;8704;52.006;4.374;2022-12-16T08:39:06;37.47;;;34.28;;
17177;SDS011;8704;52.006;4.374;2022-12-16T08:41:52;34.83;;;32.42;;
17177;SDS011;8704;52.006;4.374;2022-12-16T08:44:37;37.70;;;34.78;;
17177;SDS011;8704;52.006;4.374;2022-12-16T08:47:24;38.05;;;35.08;;
17177;SDS011;8704;52.006;4.374;2022-12-16T08:50:08;38.47;;;35.28;;
17177;SDS011;8704;52.006;4.374;2022-12-16T08:52:54;39.47;;;35.88;;
17177;SDS011;8704;52.006;4.374;2022-12-16T08:55:39;36.35;;;33.33;;
17177;SDS011;8704;52.006;4.374;2022-12-16T08:58:37;36.50;;;33.65;;
17177;SDS011;8704;52.006;4.374;2022-12-16T09:01:22;36.03;;;32.92;;
17177;SDS011;8704;52.006;4.374;2022-12-16T09:04:09;36.88;;;34.03;;
17177;SDS011;8704;52.006;4.374;2022-12-16T09:06:54;35.42;;;32.20;;
17177;SDS011;8704;52.006;4.374;2022-12-16T09:09:40;34.53;;;31.55;;
17177;SDS011;8704;52.006;4.374;2022-12-16T09:12:25;34.28;;;31.63;;
17177;SDS011;8704;52.006;4.374;2022-12-16T09:15:11;33.35;;;31.30;;
17177;SDS011;8704;52.006;4.374;2022-12-16T09:17:56;32.25;;;30.05;;
17177;SDS011;8704;52.006;4.374;2022-12-16T09:20:43;33.90;;;31.25;;
17177;SDS011;8704;52.006;4.374;2022-12-16T09:23:34;34.53;;;31.95;;
17177;SDS011;8704;52.006;4.374;2022-12-16T09:26:19;32.88;;;30.58;;
17177;SDS011;8704;52.006;4.374;2022-12-16T09:29:05;32.67;;;30.40;;
17177;SDS011;8704;52.006;4.374;2022-12-16T09:31:50;32.95;;;30.45;;
17177;SDS011;8704;52.006;4.374;2022-12-16T09:34:35;33.85;;;31.58;;
17177;SDS011;8704;52.006;4.374;2022-12-16T09:37:22;33.13;;;31.02;;
17177;SDS011;8704;52.006;4.374;2022-12-16T09:40:08;33.70;;;31.60;;
17177;SDS011;8704;52.006;4.374;2022-12-16T09:42:58;35.10;;;32.47;;
17177;SDS011;8704;52.006;4.374;2022-12-16T09:45:52;34.95;;;32.22;;
17177;SDS011;8704;52.006;4.374;2022-12-16T09:48:45;34.72;;;31.92;;
17177;SDS011;8704;52.006;4.374;2022-12-16T09:51:36;33.72;;;31.33;;
17177;SDS011;8704;52.006;4.374;2022-12-16T09:54:25;33.00;;;30.70;;
17177;SDS011;8704;52.006;4.374;2022-12-16T09:57:13;34.38;;;31.90;;
17177;SDS011;8704;52.006;4.374;2022-12-16T10:00:01;33.63;;;30.98;;
17177;SDS011;8704;52.006;4.374;2022-12-16T10:02:49;32.38;;;30.13;;
17177;SDS011;8704;52.006;4.374;2022-12-16T10:05:37;33.20;;;30.73;;
17177;SDS011;8704;52.006;4.374;2022-12-16T10:08:33;33.40;;;30.92;;
17177;SDS011;8704;52.006;4.374;2022-12-16T10:11:28;34.05;;;31.63;;
17177;SDS011;8704;52.006;4.374;2022-12-16T10:14:25;32.22;;;29.92;;
17177;SDS011;8704;52.006;4.374;2022-12-16T10:17:21;33.15;;;30.92;;
17177;SDS011;8704;52.006;4.374;2022-12-16T10:20:11;30.77;;;28.48;;
17177;SDS011;8704;52.006;4.374;2022-12-16T10:23:04;30.65;;;28.60;;
17177;SDS011;8704;52.006;4.374;2022-12-16T10:25:58;27.05;;;25.10;;
17177;SDS011;8704;52.006;4.374;2022-12-16T10:28:51;25.90;;;23.98;;
17177;SDS011;8704;52.006;4.374;2022-12-16T10:31:41;24.27;;;22.47;;
17177;SDS011;8704;52.006;4.374;2022-12-16T10:34:28;21.77;;;20.17;;
17177;SDS011;8704;52.006;4.374;2022-12-16T10:37:17;19.95;;;18.00;;
17177;SDS011;8704;52.006;4.374;2022-12-16T10:40:12;17.15;;;15.80;;
17177;SDS011;8704;52.006;4.374;2022-12-16T10:43:01;18.33;;;16.45;;
17177;SDS011;8704;52.006;4.374;2022-12-16T10:45:52;16.13;;;14.50;;
17177;SDS011;8704;52.006;4.374;2022-12-16T10:48:39;14.77;;;13.57;;
17177;SDS011;8704;52.006;4.374;2022-12-16T10:51:26;15.60;;;14.18;;
17177;SDS011;8704;52.006;4.374;2022-12-16T10:54:27;15.63;;;12.95;;
17177;SDS011;8704;52.006;4.374;2022-12-16T10:57:25;13.13;;;11.93;;
17177;SDS011;8704;52.006;4.374;2022-12-16T11:00:19;12.95;;;11.57;;
17177;SDS011;8704;52.006;4.374;2022-12-16T11:03:23;10.63;;;9.50;;
17177;SDS011;8704;52.006;4.374;2022-12-16T11:06:11;9.13;;;8.25;;
17177;SDS011;8704;52.006;4.374;2022-12-16T11:09:12;10.18;;;8.02;;
17177;SDS011;8704;52.006;4.374;2022-12-16T11:15:18;12.20;;;6.47;;
17177;SDS011;8704;52.006;4.374;2022-12-16T11:18:11;8.82;;;6.50;;
17177;SDS011;8704;52.006;4.374;2022-12-16T11:21:04;10.63;;;6.00;;
17177;SDS011;8704;52.006;4.374;2022-12-16T11:24:08;9.45;;;5.40;;
17177;SDS011;8704;52.006;4.374;2022-12-16T11:26:57;7.07;;;5.88;;
17177;SDS011;8704;52.006;4.374;2022-12-16T11:29:48;8.27;;;6.53;;
17177;SDS011;8704;52.006;4.374;2022-12-16T11:32:34;12.65;;;5.53;;
17177;SDS011;8704;52.006;4.374;2022-12-16T11:35:22;8.52;;;5.32;;
17177;SDS011;8704;52.006;4.374;2022-12-16T11:38:15;5.72;;;4.80;;
17177;SDS011;8704;52.006;4.374;2022-12-16T11:41:06;6.95;;;4.50;;
17177;SDS011;8704;52.006;4.374;2022-12-16T11:43:54;7.35;;;4.47;;
17177;SDS011;8704;52.006;4.374;2022-12-16T11:46:42;7.85;;;4.32;;
17177;SDS011;8704;52.006;4.374;2022-12-16T11:49:28;7.25;;;3.67;;
17177;SDS011;8704;52.006;4.374;2022-12-16T11:52:17;7.30;;;4.13;;
17177;SDS011;8704;52.006;4.374;2022-12-16T11:55:13;7.47;;;3.88;;
17177;SDS011;8704;52.006;4.374;2022-12-16T11:58:24;7.63;;;3.47;;
17177;SDS011;8704;52.006;4.374;2022-12-16T12:01:17;5.70;;;3.95;;
17177;SDS011;8704;52.006;4.374;2022-12-16T12:04:10;6.05;;;3.28;;
17177;SDS011;8704;52.006;4.374;2022-12-16T12:07:10;9.88;;;3.50;;
17177;SDS011;8704;52.006;4.374;2022-12-16T12:10:35;7.05;;;3.42;;
17177;SDS011;8704;52.006;4.374;2022-12-16T12:13:45;5.80;;;3.50;;
17177;SDS011;8704;52.006;4.374;2022-12-16T12:16:42;7.43;;;3.63;;
17177;SDS011;8704;52.006;4.374;2022-12-16T12:19:51;8.15;;;3.88;;
17177;SDS011;8704;52.006;4.374;2022-12-16T12:22:46;9.40;;;3.70;;
17177;SDS011;8704;52.006;4.374;2022-12-16T12:25:36;4.60;;;3.20;;
17177;SDS011;8704;52.006;4.374;2022-12-16T12:28:31;6.60;;;3.33;;
17177;SDS011;8704;52.006;4.374;2022-12-16T12:31:27;8.95;;;3.78;;
17177;SDS011;8704;52.006;4.374;2022-12-16T12:34:22;7.75;;;3.20;;
17177;SDS011;8704;52.006;4.374;2022-12-16T12:37:15;4.88;;;3.10;;
17177;SDS011;8704;52.006;4.374;2022-12-16T12:40:12;5.18;;;3.40;;
17177;SDS011;8704;52.006;4.374;2022-12-16T12:43:14;7.78;;;3.00;;
17177;SDS011;8704;52.006;4.374;2022-12-16T12:46:11;5.32;;;2.83;;
17177;SDS011;8704;52.006;4.374;2022-12-16T12:49:05;7.03;;;3.10;;
17177;SDS011;8704;52.006;4.374;2022-12-16T12:54:54;5.93;;;2.78;;
17177;SDS011;8704;52.006;4.374;2022-12-16T12:57:47;5.30;;;2.70;;
17177;SDS011;8704;52.006;4.374;2022-12-16T13:00:38;6.70;;;2.88;;
17177;SDS011;8704;52.006;4.374;2022-12-16T13:03:31;7.18;;;2.55;;
17177;SDS011;8704;52.006;4.374;2022-12-16T13:06:22;5.78;;;2.85;;
17177;SDS011;8704;52.006;4.374;2022-12-16T13:12:24;6.40;;;2.40;;
17177;SDS011;8704;52.006;4.374;2022-12-16T13:15:32;4.93;;;2.60;;
17177;SDS011;8704;52.006;4.374;2022-12-16T13:18:30;5.18;;;2.90;;
17177;SDS011;8704;52.006;4.374;2022-12-16T13:24:36;6.80;;;2.50;;
17177;SDS011;8704;52.006;4.374;2022-12-16T13:27:24;7.88;;;2.38;;
17177;SDS011;8704;52.006;4.374;2022-12-16T13:30:21;8.85;;;2.88;;
17177;SDS011;8704;52.006;4.374;2022-12-16T13:33:20;7.32;;;2.17;;
17177;SDS011;8704;52.006;4.374;2022-12-16T13:36:13;4.63;;;2.30;;
17177;SDS011;8704;52.006;4.374;2022-12-16T13:39:03;5.90;;;2.33;;
17177;SDS011;8704;52.006;4.374;2022-12-16T13:42:03;5.82;;;2.38;;
17177;SDS011;8704;52.006;4.374;2022-12-16T13:44:53;5.13;;;2.10;;
17177;SDS011;8704;52.006;4.374;2022-12-16T13:47:57;4.72;;;2.40;;
17177;SDS011;8704;52.006;4.374;2022-12-16T13:50:58;5.75;;;2.17;;
17177;SDS011;8704;52.006;4.374;2022-12-16T13:53:47;4.93;;;2.38;;
17177;SDS011;8704;52.006;4.374;2022-12-16T13:56:36;4.10;;;1.80;;
17177;SDS011;8704;52.006;4.374;2022-12-16T13:59:25;4.50;;;2.20;;
17177;SDS011;8704;52.006;4.374;2022-12-16T14:02:16;5.45;;;1.98;;
17177;SDS011;8704;52.006;4.374;2022-12-16T14:05:13;6.88;;;2.20;;
17177;SDS011;8704;52.006;4.374;2022-12-16T14:08:04;7.85;;;2.20;;
17177;SDS011;8704;52.006;4.374;2022-12-16T14:10:57;4.13;;;2.20;;
17177;SDS011;8704;52.006;4.374;2022-12-16T14:13:47;4.38;;;2.03;;
17177;SDS011;8704;52.006;4.374;2022-12-16T14:19:31;4.75;;;1.67;;
17177;SDS011;8704;52.006;4.374;2022-12-16T14:22:39;4.78;;;1.98;;
17177;SDS011;8704;52.006;4.374;2022-12-16T14:25:31;5.60;;;1.50;;
17177;SDS011;8704;52.006;4.374;2022-12-16T14:28:21;4.38;;;1.80;;
17177;SDS011;8704;52.006;4.374;2022-12-16T14:31:11;3.55;;;1.70;;
17177;SDS011;8704;52.006;4.374;2022-12-16T14:34:01;7.45;;;1.90;;
17177;SDS011;8704;52.006;4.374;2022-12-16T14:36:47;7.20;;;2.17;;
17177;SDS011;8704;52.006;4.374;2022-12-16T14:39:36;4.07;;;1.70;;
17177;SDS011;8704;52.006;4.374;2022-12-16T14:42:23;4.20;;;2.20;;
17177;SDS011;8704;52.006;4.374;2022-12-16T14:45:21;3.55;;;1.90;;
17177;SDS011;8704;52.006;4.374;2022-12-16T14:51:22;6.25;;;2.08;;
17177;SDS011;8704;52.006;4.374;2022-12-16T14:54:18;4.88;;;2.50;;
17177;SDS011;8704;52.006;4.374;2022-12-16T14:57:09;4.03;;;2.20;;
17177;SDS011;8704;52.006;4.374;2022-12-16T15:00:00;4.53;;;2.13;;
17177;SDS011;8704;52.006;4.374;2022-12-16T15:02:49;6.28;;;2.45;;
17177;SDS011;8704;52.006;4.374;2022-12-16T15:05:34;4.20;;;2.38;;
17177;SDS011;8704;52.006;4.374;2022-12-16T15:08:21;6.18;;;2.40;;
17177;SDS011;8704;52.006;4.374;2022-12-16T15:11:09;6.18;;;2.53;;
17177;SDS011;8704;52.006;4.374;2022-12-16T15:14:00;4.90;;;2.63;;
17177;SDS011;8704;52.006;4.374;2022-12-16T15:16:46;5.70;;;2.90;;
17177;SDS011;8704;52.006;4.374;2022-12-16T15:19:38;5.75;;;2.80;;
17177;SDS011;8704;52.006;4.374;2022-12-16T15:22:29;5.28;;;2.67;;
17177;SDS011;8704;52.006;4.374;2022-12-16T15:25:19;8.07;;;2.90;;
17177;SDS011;8704;52.006;4.374;2022-12-16T15:28:21;4.90;;;3.30;;
17177;SDS011;8704;52.006;4.374;2022-12-16T15:31:14;5.70;;;3.15;;
17177;SDS011;8704;52.006;4.374;2022-12-16T15:34:16;5.75;;;3.60;;
17177;SDS011;8704;52.006;4.374;2022-12-16T15:37:19;6.93;;;3.58;;
17177;SDS011;8704;52.006;4.374;2022-12-16T15:40:23;6.75;;;4.15;;
17177;SDS011;8704;52.006;4.374;2022-12-16T15:43:24;9.32;;;3.92;;
17177;SDS011;8704;52.006;4.374;2022-12-16T15:46:22;9.05;;;4.15;;
17177;SDS011;8704;52.006;4.374;2022-12-16T15:49:13;8.82;;;4.50;;
17177;SDS011;8704;52.006;4.374;2022-12-16T15:55:24;7.40;;;3.75;;
17177;SDS011;8704;52.006;4.374;2022-12-16T15:58:31;6.43;;;4.15;;
17177;SDS011;8704;52.006;4.374;2022-12-16T16:01:19;6.72;;;3.67;;
17177;SDS011;8704;52.006;4.374;2022-12-16T16:04:14;8.07;;;4.22;;
17177;SDS011;8704;52.006;4.374;2022-12-16T16:07:03;7.22;;;4.30;;
17177;SDS011;8704;52.006;4.374;2022-12-16T16:10:07;6.57;;;4.20;;
17177;SDS011;8704;52.006;4.374;2022-12-16T16:12:58;10.60;;;4.40;;
17177;SDS011;8704;52.006;4.374;2022-12-16T16:15:44;9.65;;;4.57;;
17177;SDS011;8704;52.006;4.374;2022-12-16T16:18:29;9.07;;;5.40;;
17177;SDS011;8704;52.006;4.374;2022-12-16T16:21:15;9.63;;;5.22;;
17177;SDS011;8704;52.006;4.374;2022-12-16T16:24:00;8.07;;;5.00;;
17177;SDS011;8704;52.006;4.374;2022-12-16T16:26:47;8.15;;;5.60;;
17177;SDS011;8704;52.006;4.374;2022-12-16T16:29:33;9.85;;;5.75;;
17177;SDS011;8704;52.006;4.374;2022-12-16T16:32:29;9.07;;;6.07;;
17177;SDS011;8704;52.006;4.374;2022-12-16T16:35:15;8.90;;;5.85;;
17177;SDS011;8704;52.006;4.374;2022-12-16T16:38:02;11.15;;;5.95;;
17177;SDS011;8704;52.006;4.374;2022-12-16T16:40:47;13.25;;;6.80;;
17177;SDS011;8704;52.006;4.374;2022-12-16T16:43:34;9.95;;;6.53;;
17177;SDS011;8704;52.006;4.374;2022-12-16T16:46:23;13.20;;;7.10;;
17177;SDS011;8704;52.006;4.374;2022-12-16T16:49:12;11.13;;;7.05;;
17177;SDS011;8704;52.006;4.374;2022-12-16T16:52:03;11.68;;;7.25;;
17177;SDS011;8704;52.006;4.374;2022-12-16T16:54:51;10.70;;;7.60;;
17177;SDS011;8704;52.006;4.374;2022-12-16T16:57:36;11.35;;;7.43;;
17177;SDS011;8704;52.006;4.374;2022-12-16T17:00:23;10.80;;;7.20;;
17177;SDS011;8704;52.006;4.374;2022-12-16T17:03:09;10.32;;;7.32;;
17177;SDS011;8704;52.006;4.374;2022-12-16T17:05:54;12.40;;;7.53;;
17177;SDS011;8704;52.006;4.374;2022-12-16T17:08:40;11.15;;;7.63;;